Time;durP1;ratioP1;P1;durP2;ratioP2;P2;SDS_P1;SDS_P2;PMS_P1;PMS_P2;Temp;Humidity;BMP_temperature;BMP_pressure;BME280_temperature;BME280_humidity;BME280_pressure;Samples;Min_cycle;Max_cycle;Signal;HPM_P1;HPM_P2
2022/10/09 03:02:25;;;;;;;;;;;5.10;99.90;;;;;;5305248;23;19983;-67
2022/10/09 03:04:51;;;;;;;;;;;5.20;99.90;;;;;;5031188;28;19931;-65
2022/10/09 03:07:18;;;;;;;;;;;5.10;99.90;;;;;;5032422;28;20028;-64
2022/10/09 03:09:44;;;;;;;;;;;5.10;99.90;;;;;;5030951;28;19996;-66
2022/10/09 03:12:11;;;;;;;;;;;5.10;99.90;;;;;;5018235;28;19961;-65
2022/10/09 03:14:38;;;;;;;;;;;5.10;99.90;;;;;;5011284;28;19979;-66
2022/10/09 03:17:04;;;;;;;;;;;5.20;99.90;;;;;;5011451;28;19926;-66
2022/10/09 03:19:32;;;;;;;;;;;5.10;99.90;;;;;;5010941;28;19925;-67
2022/10/09 03:21:59;;;;;;;;;;;5.10;99.90;;;;;;5011058;28;19925;-66
2022/10/09 03:24:25;;;;;;;;;;;5.00;99.90;;;;;;5011118;28;19929;-67
2022/10/09 03:26:52;;;;;;;;;;;5.00;99.90;;;;;;5011108;28;19965;-67
2022/10/09 03:29:19;;;;;;;;;;;5.00;99.90;;;;;;5012150;28;19925;-68
2022/10/09 03:31:45;;;;;;;;;;;4.90;99.90;;;;;;5010844;28;20023;-66
2022/10/09 03:34:12;;;;;;;;;;;4.90;99.90;;;;;;5010780;28;19925;-67
2022/10/09 03:36:41;;;;;;;;;;;4.90;99.90;;;;;;5012101;28;20311;-65
2022/10/09 03:39:07;;;;;;;;;;;4.80;99.90;;;;;;5010887;28;19930;-67
2022/10/09 03:41:34;;;;;;;;;;;4.80;99.90;;;;;;5010780;28;19933;-66
2022/10/09 03:44:01;;;;;;;;;;;4.80;99.90;;;;;;5010276;28;20288;-67
2022/10/09 03:46:28;;;;;;;;;;;4.80;99.90;;;;;;5010760;28;19979;-65
2022/10/09 03:48:55;;;;;;;;;;;4.80;99.90;;;;;;5010387;28;19930;-66
2022/10/09 03:51:21;;;;;;;;;;;4.70;99.90;;;;;;5010848;28;19929;-68
2022/10/09 03:53:49;;;;;;;;;;;4.70;99.90;;;;;;5010401;28;19929;-67
2022/10/09 03:56:16;;;;;;;;;;;4.70;99.90;;;;;;5010525;28;19929;-67
2022/10/09 03:58:43;;;;;;;;;;;4.60;99.90;;;;;;5010398;28;20411;-66
2022/10/09 04:01:10;;;;;;;;;;;4.60;99.90;;;;;;5009628;28;19933;-67
2022/10/09 04:03:36;;;;;;;;;;;4.60;99.90;;;;;;5010241;28;19926;-64
2022/10/09 04:06:03;;;;;;;;;;;4.60;99.90;;;;;;5010494;28;20351;-66
2022/10/09 04:08:30;;;;;;;;;;;4.60;99.90;;;;;;5010374;28;19926;-68
2022/10/09 04:10:59;;;;;;;;;;;4.60;99.90;;;;;;5010028;28;20388;-64
2022/10/09 04:13:25;;;;;;;;;;;4.60;99.90;;;;;;5010282;28;19925;-67
2022/10/09 04:15:53;;;;;;;;;;;4.60;99.90;;;;;;5016576;28;20359;-67
2022/10/09 04:18:19;;;;;;;;;;;4.60;99.90;;;;;;5017052;28;19925;-64
2022/10/09 04:20:48;;;;;;;;;;;4.60;99.90;;;;;;5016269;28;19980;-66
2022/10/09 04:23:15;;;;;;;;;;;4.70;99.90;;;;;;5016955;28;19925;-68
2022/10/09 04:25:41;;;;;;;;;;;4.60;99.90;;;;;;5016768;28;19926;-67
2022/10/09 04:28:10;;;;;;;;;;;4.60;99.90;;;;;;5016535;28;20300;-66
2022/10/09 04:30:36;;;;;;;;;;;4.50;99.90;;;;;;5016643;28;19926;-66
2022/10/09 04:33:03;;;;;;;;;;;4.50;99.90;;;;;;5016354;28;19926;-67
2022/10/09 04:35:30;;;;;;;;;;;4.60;99.90;;;;;;5016816;28;19926;-65
2022/10/09 04:37:57;;;;;;;;;;;4.50;99.90;;;;;;5016591;28;19976;-66
2022/10/09 04:40:23;;;;;;;;;;;4.50;99.90;;;;;;5016300;28;19925;-67
2022/10/09 04:42:50;;;;;;;;;;;4.60;99.90;;;;;;5016344;28;19925;-67
2022/10/09 04:45:18;;;;;;;;;;;4.60;99.90;;;;;;5016534;28;19925;-67
2022/10/09 04:47:45;;;;;;;;;;;4.50;99.90;;;;;;5016580;28;19975;-66
2022/10/09 04:50:13;;;;;;;;;;;4.50;99.90;;;;;;5016237;28;20340;-68
2022/10/09 04:52:40;;;;;;;;;;;4.50;99.90;;;;;;5016171;28;19926;-67
2022/10/09 04:55:07;;;;;;;;;;;4.50;99.90;;;;;;5016288;28;19981;-67
2022/10/09 04:57:34;;;;;;;;;;;4.50;99.90;;;;;;5016675;28;19960;-69
2022/10/09 05:00:01;;;;;;;;;;;4.40;99.90;;;;;;5016259;28;19933;-70
2022/10/09 05:02:30;;;;;;;;;;;4.40;99.90;;;;;;5008977;28;19965;-69
2022/10/09 05:04:57;;;;;;;;;;;4.40;99.90;;;;;;5007078;28;19925;-70
2022/10/09 05:07:24;;;;;;;;;;;4.50;99.90;;;;;;5005159;28;19925;-66
2022/10/09 05:09:50;;;;;;;;;;;4.40;99.90;;;;;;4996321;28;19926;-69
2022/10/09 05:12:17;;;;;;;;;;;4.40;99.90;;;;;;5012433;28;19933;-69
2022/10/09 05:14:44;;;;;;;;;;;4.40;99.90;;;;;;5016327;28;20442;-68
2022/10/09 05:17:10;;;;;;;;;;;4.40;99.90;;;;;;5016048;28;19932;-69
2022/10/09 05:19:39;;;;;;;;;;;4.40;99.90;;;;;;5015790;28;19975;-69
2022/10/09 05:22:05;;;;;;;;;;;4.40;99.90;;;;;;5015820;28;20354;-69
2022/10/09 05:24:32;;;;;;;;;;;4.40;99.90;;;;;;5015870;28;19925;-66
2022/10/09 05:26:59;;;;;;;;;;;4.40;99.90;;;;;;5012529;28;19937;-67
2022/10/09 05:29:26;;;;;;;;;;;4.40;99.90;;;;;;5012681;28;19949;-68
2022/10/09 05:31:53;;;;;;;;;;;4.40;99.90;;;;;;5012822;28;19972;-68
2022/10/09 05:34:19;;;;;;;;;;;4.40;99.90;;;;;;5012410;28;20350;-69
2022/10/09 05:36:47;;;;;;;;;;;4.40;99.90;;;;;;5007229;28;20407;-69
2022/10/09 05:39:14;;;;;;;;;;;4.40;99.90;;;;;;4992719;28;20037;-68
2022/10/09 05:41:40;;;;;;;;;;;4.40;99.90;;;;;;4992834;28;20375;-69
2022/10/09 05:44:07;;;;;;;;;;;4.40;99.90;;;;;;4992817;28;19926;-69
2022/10/09 05:46:34;;;;;;;;;;;4.40;99.90;;;;;;4993048;28;19930;-67
2022/10/09 05:49:04;;;;;;;;;;;4.50;99.90;;;;;;4992555;28;20352;-69
2022/10/09 05:51:31;;;;;;;;;;;4.40;99.90;;;;;;4992925;28;19940;-69
2022/10/09 05:54:00;;;;;;;;;;;4.40;99.90;;;;;;4993009;28;20348;-69
2022/10/09 05:56:28;;;;;;;;;;;4.40;99.90;;;;;;4992836;28;19932;-70
2022/10/09 05:58:56;;;;;;;;;;;4.50;99.90;;;;;;4992608;28;19972;-69
2022/10/09 06:01:24;;;;;;;;;;;4.50;99.90;;;;;;4992063;28;19926;-68
2022/10/09 06:03:52;;;;;;;;;;;4.60;99.90;;;;;;4992592;28;19929;-68
2022/10/09 06:06:19;;;;;;;;;;;4.60;99.90;;;;;;4992926;28;19926;-69
2022/10/09 06:08:46;;;;;;;;;;;4.70;99.90;;;;;;4992912;28;19926;-69
2022/10/09 06:11:14;;;;;;;;;;;4.80;99.90;;;;;;5001527;28;19925;-69
2022/10/09 06:13:42;;;;;;;;;;;4.70;99.90;;;;;;5011816;28;19930;-67
2022/10/09 06:16:10;;;;;;;;;;;4.80;99.90;;;;;;5011995;28;19926;-68
2022/10/09 06:18:37;;;;;;;;;;;4.80;99.90;;;;;;5012079;28;19930;-68
2022/10/09 06:21:04;;;;;;;;;;;4.90;99.90;;;;;;5011586;28;19925;-70
2022/10/09 06:23:31;;;;;;;;;;;5.00;99.90;;;;;;5011486;28;20342;-69
2022/10/09 06:25:59;;;;;;;;;;;5.10;99.90;;;;;;5011669;28;19930;-68
2022/10/09 06:28:27;;;;;;;;;;;5.20;99.90;;;;;;5011804;28;19937;-69
2022/10/09 06:30:54;;;;;;;;;;;5.30;99.90;;;;;;5011494;28;19996;-65
2022/10/09 06:33:21;;;;;;;;;;;5.40;99.90;;;;;;5011374;28;19948;-69
2022/10/09 06:35:48;;;;;;;;;;;5.60;99.90;;;;;;5011826;28;19933;-69
2022/10/09 06:38:16;;;;;;;;;;;5.60;99.90;;;;;;5011492;28;19929;-68
2022/10/09 06:40:43;;;;;;;;;;;5.70;99.90;;;;;;5011255;28;20132;-68
2022/10/09 06:43:10;;;;;;;;;;;5.70;99.90;;;;;;5011562;28;20315;-69
2022/10/09 06:45:38;;;;;;;;;;;5.80;99.90;;;;;;5011927;28;19929;-69
2022/10/09 06:48:05;;;;;;;;;;;5.90;99.90;;;;;;5011749;28;19926;-69
2022/10/09 06:50:34;;;;;;;;;;;6.00;99.90;;;;;;5011468;28;19925;-70
2022/10/09 06:53:01;;;;;;;;;;;6.10;99.90;;;;;;5011137;28;19932;-66
2022/10/09 06:55:28;;;;;;;;;;;6.10;99.90;;;;;;5011608;28;20457;-67
2022/10/09 06:57:55;;;;;;;;;;;6.20;99.90;;;;;;5011656;28;19933;-67
2022/10/09 07:00:21;;;;;;;;;;;6.20;99.90;;;;;;5011208;28;19933;-66
2022/10/09 07:02:50;;;;;;;;;;;6.20;99.90;;;;;;5010708;28;19932;-66
2022/10/09 07:05:16;;;;;;;;;;;6.30;99.90;;;;;;5011431;28;19925;-67
2022/10/09 07:07:43;;;;;;;;;;;6.40;99.90;;;;;;5011549;28;19976;-67
2022/10/09 07:10:10;;;;;;;;;;;6.50;99.90;;;;;;5009920;28;20415;-67
2022/10/09 07:12:37;;;;;;;;;;;6.60;99.90;;;;;;4991294;28;19930;-67
2022/10/09 07:15:05;;;;;;;;;;;6.70;99.90;;;;;;4991470;28;19926;-65
2022/10/09 07:17:32;;;;;;;;;;;6.80;99.90;;;;;;4991370;28;19992;-66
2022/10/09 07:20:00;;;;;;;;;;;6.90;99.90;;;;;;4991308;28;19926;-65
2022/10/09 07:22:27;;;;;;;;;;;7.10;99.90;;;;;;4991030;28;19976;-65
2022/10/09 07:24:53;;;;;;;;;;;7.20;99.90;;;;;;4991281;28;19926;-67
2022/10/09 07:27:20;;;;;;;;;;;7.40;99.90;;;;;;4991292;28;19929;-67
2022/10/09 07:29:47;;;;;;;;;;;7.60;99.90;;;;;;4990975;28;19935;-67
2022/10/09 07:32:14;;;;;;;;;;;7.70;99.90;;;;;;4990546;28;19976;-68
2022/10/09 07:34:41;;;;;;;;;;;7.90;99.90;;;;;;4990995;28;20384;-67
2022/10/09 07:37:09;;;;;;;;;;;8.00;99.90;;;;;;4991276;28;19926;-67
2022/10/09 07:39:36;;;;;;;;;;;8.10;99.90;;;;;;4990668;28;19926;-67
2022/10/09 07:42:03;;;;;;;;;;;8.30;99.90;;;;;;4990637;28;20463;-68
2022/10/09 07:44:29;;;;;;;;;;;8.40;99.90;;;;;;4990704;28;19930;-66
2022/10/09 07:46:56;;;;;;;;;;;8.60;99.90;;;;;;4990750;28;19926;-67
2022/10/09 07:49:23;;;;;;;;;;;8.70;99.90;;;;;;4990096;28;19926;-67
2022/10/09 07:51:50;;;;;;;;;;;8.90;99.90;;;;;;4990514;28;19926;-67
2022/10/09 07:54:18;;;;;;;;;;;8.90;99.90;;;;;;4990556;28;19974;-66
2022/10/09 07:56:45;;;;;;;;;;;9.00;99.90;;;;;;4990755;28;19926;-67
2022/10/09 07:59:13;;;;;;;;;;;9.10;99.90;;;;;;4990436;28;19930;-67
2022/10/09 08:01:40;;;;;;;;;;;9.10;99.90;;;;;;4989992;28;19980;-66
2022/10/09 08:04:07;;;;;;;;;;;9.20;99.90;;;;;;4990724;28;19926;-67
2022/10/09 08:06:34;;;;;;;;;;;9.30;99.90;;;;;;4990630;28;19925;-67
2022/10/09 08:09:01;;;;;;;;;;;9.30;99.90;;;;;;4990339;28;19976;-67
2022/10/09 08:11:30;;;;;;;;;;;9.40;99.90;;;;;;5001796;28;19925;-65
2022/10/09 08:13:57;;;;;;;;;;;9.50;99.90;;;;;;5010214;28;20315;-69
2022/10/09 08:16:24;;;;;;;;;;;9.60;99.90;;;;;;5010424;28;19932;-66
2022/10/09 08:18:54;;;;;;;;;;;9.70;99.90;;;;;;5010335;28;19933;-66
2022/10/09 08:21:20;;;;;;;;;;;9.70;99.90;;;;;;5009914;28;19926;-67
2022/10/09 08:23:47;;;;;;;;;;;9.80;99.90;;;;;;5009826;28;19925;-68
2022/10/09 08:26:15;;;;;;;;;;;9.80;99.90;;;;;;5010081;28;19933;-66
2022/10/09 08:28:43;;;;;;;;;;;9.90;99.90;;;;;;5010160;28;19925;-69
2022/10/09 08:31:10;;;;;;;;;;;10.00;99.90;;;;;;5010113;28;19926;-67
2022/10/09 08:33:37;;;;;;;;;;;10.10;99.90;;;;;;5009714;28;19932;-67
2022/10/09 08:36:06;;;;;;;;;;;10.10;99.90;;;;;;5010064;28;20400;-68
2022/10/09 08:38:33;;;;;;;;;;;10.10;99.90;;;;;;5010247;28;19929;-66
2022/10/09 08:41:02;;;;;;;;;;;10.20;99.90;;;;;;5009847;28;19980;-66
2022/10/09 08:43:31;;;;;;;;;;;10.30;99.90;;;;;;5009904;28;20343;-67
2022/10/09 08:46:00;;;;;;;;;;;10.40;99.90;;;;;;5009936;28;19933;-67
2022/10/09 08:48:28;;;;;;;;;;;10.40;99.90;;;;;;5009792;28;19932;-67
2022/10/09 08:50:55;;;;;;;;;;;10.50;99.90;;;;;;5009577;28;19925;-67
2022/10/09 08:53:28;;;;;;;;;;;10.60;99.90;;;;;;5009635;28;19925;-66
2022/10/09 08:55:56;;;;;;;;;;;10.60;99.90;;;;;;5010157;28;20020;-67
2022/10/09 08:58:25;;;;;;;;;;;10.70;99.90;;;;;;5009712;28;19932;-67
2022/10/09 09:00:53;;;;;;;;;;;10.70;99.90;;;;;;5009821;28;20351;-67
2022/10/09 09:03:39;;;;;;;;;;;10.80;99.90;;;;;;5012950;28;19933;-67
2022/10/09 09:06:09;;;;;;;;;;;11.00;99.90;;;;;;5013426;28;19948;-68
2022/10/09 09:08:43;;;;;;;;;;;11.10;99.90;;;;;;5013203;28;19930;-66
2022/10/09 09:11:15;;;;;;;;;;;11.20;99.90;;;;;;5004214;28;20388;-65
2022/10/09 09:13:49;;;;;;;;;;;11.30;99.90;;;;;;4993484;28;20371;-67
2022/10/09 09:16:19;;;;;;;;;;;11.40;99.90;;;;;;4994104;28;19926;-67
2022/10/09 09:18:51;;;;;;;;;;;11.50;99.90;;;;;;4994094;28;19948;-66
2022/10/09 09:21:27;;;;;;;;;;;11.50;99.90;;;;;;4993689;28;20344;-67
2022/10/09 09:23:54;;;;;;;;;;;11.60;99.90;;;;;;4993698;28;19948;-66
2022/10/09 09:26:21;;;;;;;;;;;11.70;99.90;;;;;;4993956;28;20265;-67
2022/10/09 09:28:51;;;;;;;;;;;11.80;99.90;;;;;;4993654;28;19948;-67
2022/10/09 09:31:20;;;;;;;;;;;11.90;99.90;;;;;;4993611;28;19926;-67
2022/10/09 09:33:52;;;;;;;;;;;12.00;99.90;;;;;;4993110;28;20348;-66
2022/10/09 09:36:21;;;;;;;;;;;12.10;99.90;;;;;;4993743;28;19929;-67
2022/10/09 09:38:48;;;;;;;;;;;12.30;99.90;;;;;;4993367;28;20396;-66
2022/10/09 09:41:15;;;;;;;;;;;12.40;99.90;;;;;;4993303;28;19926;-67
2022/10/09 09:43:42;;;;;;;;;;;12.50;99.90;;;;;;4992959;28;19926;-66
2022/10/09 09:46:12;;;;;;;;;;;12.60;99.90;;;;;;4993209;28;19933;-66
2022/10/09 09:48:40;;;;;;;;;;;12.80;99.90;;;;;;4993078;28;19929;-67
2022/10/09 09:51:14;;;;;;;;;;;13.00;99.90;;;;;;4992533;28;19926;-68
2022/10/09 09:53:42;;;;;;;;;;;13.10;99.90;;;;;;4993007;28;19926;-66
2022/10/09 09:56:09;;;;;;;;;;;13.20;99.90;;;;;;4993149;28;19926;-67
2022/10/09 09:58:38;;;;;;;;;;;13.40;99.90;;;;;;4992808;28;19987;-66
2022/10/09 10:01:06;;;;;;;;;;;13.50;99.90;;;;;;4991835;28;19930;-68
2022/10/09 10:03:33;;;;;;;;;;;13.50;99.90;;;;;;4992645;28;19930;-66
2022/10/09 10:06:00;;;;;;;;;;;13.60;99.90;;;;;;4992961;28;19961;-67
2022/10/09 10:08:29;;;;;;;;;;;13.70;99.90;;;;;;4992924;28;19974;-66
2022/10/09 10:10:57;;;;;;;;;;;13.90;99.90;;;;;;4999387;28;19933;-67
2022/10/09 10:13:28;;;;;;;;;;;14.20;99.90;;;;;;5011256;28;19938;-67
2022/10/09 10:15:56;;;;;;;;;;;14.30;99.90;;;;;;5012039;28;19948;-67
2022/10/09 10:18:23;;;;;;;;;;;14.50;99.90;;;;;;5012140;28;19932;-67
2022/10/09 10:20:51;;;;;;;;;;;14.70;99.90;;;;;;5011765;28;20139;-68
2022/10/09 10:23:26;;;;;;;;;;;15.00;99.90;;;;;;5011815;28;19934;-67
2022/10/09 10:25:55;;;;;;;;;;;15.00;99.90;;;;;;5011856;28;19925;-65
2022/10/09 10:28:26;;;;;;;;;;;16.80;99.90;;;;;;5011861;28;19930;-65
2022/10/09 10:30:55;;;;;;;;;;;22.20;99.90;;;;;;5011462;28;19930;-67
2022/10/09 10:33:23;;;;;;;;;;;26.00;99.90;;;;;;5011438;28;19930;-67
2022/10/09 10:35:51;;;;;;;;;;;28.40;99.90;;;;;;5011672;28;19926;-67
2022/10/09 10:38:20;;;;;;;;;;;29.00;99.90;;;;;;5011689;28;19993;-68
2022/10/09 10:40:50;;;;;;;;;;;30.40;99.90;;;;;;5011704;28;19933;-68
2022/10/09 10:43:26;;;;;;;;;;;31.20;99.90;;;;;;5011427;28;19926;-68
2022/10/09 10:45:58;;;;;;;;;;;32.10;99.90;;;;;;5011547;28;20041;-68
2022/10/09 10:48:27;;;;;;;;;;;31.90;99.90;;;;;;5011213;28;20017;-68
2022/10/09 10:50:58;;;;;;;;;;;31.50;99.90;;;;;;5012235;28;19929;-68
2022/10/09 10:53:32;;;;;;;;;;;33.60;99.90;;;;;;5011071;28;20360;-68
2022/10/09 10:56:00;;;;;;;;;;;33.70;99.90;;;;;;5011503;28;20335;-68
2022/10/09 10:58:30;;;;;;;;;;;33.70;99.90;;;;;;5011312;28;19925;-69
2022/10/09 11:01:04;;;;;;;;;;;34.70;99.90;;;;;;5010237;28;19929;-66
2022/10/09 11:03:37;;;;;;;;;;;34.40;99.90;;;;;;5010900;28;19926;-68
2022/10/09 11:06:07;;;;;;;;;;;34.50;99.90;;;;;;5011251;28;19983;-66
2022/10/09 11:08:44;;;;;;;;;;;33.70;99.90;;;;;;5011108;28;19929;-67
2022/10/09 11:11:13;;;;;;;;;;;34.70;99.90;;;;;;5001703;28;19976;-68
2022/10/09 11:13:46;;;;;;;;;;;35.80;99.90;;;;;;4991121;28;19929;-69
2022/10/09 11:16:18;;;;;;;;;;;33.70;99.90;;;;;;4991315;28;19936;-68
2022/10/09 11:19:03;;;;;;;;;;;34.40;99.90;;;;;;4991354;28;19925;-68
2022/10/09 11:21:41;;;;;;;;;;;35.10;99.90;;;;;;4991120;28;19976;-66
2022/10/09 11:24:14;;;;;;;;;;;35.90;99.90;;;;;;4990314;28;19926;-69
2022/10/09 11:26:43;;;;;;;;;;;36.10;99.90;;;;;;4991139;28;19926;-68
2022/10/09 11:29:16;;;;;;;;;;;36.10;99.90;;;;;;4991427;28;19929;-68
2022/10/09 11:31:48;;;;;;;;;;;36.40;99.90;;;;;;4991122;28;19993;-69
2022/10/09 11:34:20;;;;;;;;;;;37.60;99.90;;;;;;4990843;28;19926;-66
2022/10/09 11:36:47;;;;;;;;;;;36.50;99.90;;;;;;4991210;28;20389;-68
2022/10/09 11:39:14;;;;;;;;;;;37.00;99.90;;;;;;4990942;28;19933;-69
2022/10/09 11:41:44;;;;;;;;;;;37.90;99.90;;;;;;4991336;28;19934;-68
2022/10/09 11:44:31;;;;;;;;;;;38.00;99.20;;;;;;4990823;28;20285;-69
2022/10/09 11:47:03;;;;;;;;;;;38.60;99.30;;;;;;4991078;28;19936;-68
2022/10/09 11:49:33;;;;;;;;;;;36.80;99.50;;;;;;4990878;28;19933;-70
2022/10/09 11:52:02;;;;;;;;;;;37.60;99.10;;;;;;4990941;28;20357;-69
2022/10/09 11:54:29;;;;;;;;;;;37.60;99.00;;;;;;4990484;28;19969;-67
2022/10/09 11:56:57;;;;;;;;;;;37.00;98.40;;;;;;4991251;28;19926;-68
2022/10/09 11:59:28;;;;;;;;;;;36.00;98.40;;;;;;4990434;28;19930;-68
2022/10/09 12:01:57;;;;;;;;;;;36.00;98.50;;;;;;4990030;28;20385;-68
2022/10/09 12:04:28;;;;;;;;;;;36.70;98.20;;;;;;4990434;28;20017;-68
2022/10/09 12:06:56;;;;;;;;;;;37.20;98.00;;;;;;4990729;28;19929;-69
2022/10/09 12:09:24;;;;;;;;;;;37.80;97.20;;;;;;4990268;28;19926;-68
2022/10/09 12:11:55;;;;;;;;;;;36.10;96.10;;;;;;5004758;28;19925;-68
2022/10/09 12:14:24;;;;;;;;;;;35.30;96.60;;;;;;5009837;28;20300;-68
2022/10/09 12:16:51;;;;;;;;;;;34.50;96.90;;;;;;5010242;28;19926;-67
2022/10/09 12:19:21;;;;;;;;;;;35.10;96.90;;;;;;5009670;28;19925;-69
2022/10/09 12:21:51;;;;;;;;;;;36.10;96.60;;;;;;5009905;28;19925;-69
2022/10/09 12:24:20;;;;;;;;;;;36.00;96.20;;;;;;5009697;28;20387;-68
2022/10/09 12:26:48;;;;;;;;;;;36.60;96.00;;;;;;5010392;28;19925;-68
2022/10/09 12:29:18;;;;;;;;;;;37.10;96.10;;;;;;5009700;28;19926;-66
2022/10/09 12:31:46;;;;;;;;;;;38.10;95.80;;;;;;5009906;28;20020;-68
2022/10/09 12:34:16;;;;;;;;;;;36.90;95.60;;;;;;5042630;28;20277;-68
2022/10/09 12:36:45;;;;;;;;;;;35.60;95.50;;;;;;5013535;28;20384;-68
2022/10/09 12:39:12;;;;;;;;;;;35.70;95.50;;;;;;5013817;28;19965;-69
2022/10/09 12:41:39;;;;;;;;;;;34.10;95.50;;;;;;5013760;28;20392;-68
2022/10/09 12:44:07;;;;;;;;;;;34.20;95.70;;;;;;5013581;28;19925;-68
2022/10/09 12:46:35;;;;;;;;;;;33.70;95.70;;;;;;5013673;28;19948;-67
2022/10/09 12:49:04;;;;;;;;;;;33.90;95.80;;;;;;5013344;28;20308;-69
2022/10/09 12:51:32;;;;;;;;;;;34.10;95.90;;;;;;5013493;28;20454;-69
2022/10/09 12:54:00;;;;;;;;;;;34.30;95.60;;;;;;5013339;28;19926;-67
2022/10/09 12:56:28;;;;;;;;;;;34.40;95.70;;;;;;5013562;28;20404;-67
2022/10/09 12:58:55;;;;;;;;;;;34.20;95.40;;;;;;5013304;28;20293;-68
2022/10/09 13:01:23;;;;;;;;;;;34.40;95.10;;;;;;5012789;28;19932;-68
2022/10/09 13:03:54;;;;;;;;;;;33.40;95.50;;;;;;5013107;28;19929;-68
2022/10/09 13:06:22;;;;;;;;;;;33.00;95.80;;;;;;5013554;28;19933;-69
2022/10/09 13:08:52;;;;;;;;;;;33.00;95.70;;;;;;5013141;28;20454;-69
2022/10/09 13:11:21;;;;;;;;;;;32.80;95.50;;;;;;5003118;28;19926;-70
2022/10/09 13:13:49;;;;;;;;;;;32.20;95.80;;;;;;4993527;28;19925;-69
2022/10/09 13:16:15;;;;;;;;;;;31.60;95.70;;;;;;4993770;28;19938;-69
2022/10/09 13:18:42;;;;;;;;;;;31.10;96.10;;;;;;4993564;28;19985;-69
2022/10/09 13:21:21;;;;;;;;;;;31.30;95.40;;;;;;4993328;28;19926;-69
2022/10/09 13:23:48;;;;;;;;;;;31.10;95.40;;;;;;4993203;28;19965;-69
2022/10/09 13:26:17;;;;;;;;;;;30.80;95.60;;;;;;4993851;28;19933;-69
2022/10/09 13:28:45;;;;;;;;;;;30.70;95.10;;;;;;4993314;28;20348;-68
2022/10/09 13:31:12;;;;;;;;;;;30.00;95.50;;;;;;4993118;28;19930;-68
2022/10/09 13:33:39;;;;;;;;;;;30.10;95.40;;;;;;4992913;28;19926;-68
2022/10/09 13:36:06;;;;;;;;;;;29.80;94.80;;;;;;4993287;28;19980;-69
2022/10/09 13:38:33;;;;;;;;;;;30.10;95.40;;;;;;4993287;28;19926;-66
2022/10/09 13:40:59;;;;;;;;;;;30.10;95.10;;;;;;4993179;28;19933;-69
2022/10/09 13:43:27;;;;;;;;;;;29.60;95.40;;;;;;4992742;28;19925;-69
2022/10/09 13:45:56;;;;;;;;;;;29.20;95.20;;;;;;4993362;28;19932;-69
2022/10/09 13:48:24;;;;;;;;;;;29.20;95.80;;;;;;4992285;28;20020;-68
2022/10/09 13:50:51;;;;;;;;;;;29.90;95.70;;;;;;4992762;28;19926;-69
2022/10/09 13:53:17;;;;;;;;;;;30.30;95.10;;;;;;4992722;28;20397;-70
2022/10/09 13:55:44;;;;;;;;;;;29.10;95.50;;;;;;4993140;28;19933;-69
2022/10/09 13:58:11;;;;;;;;;;;29.50;95.50;;;;;;4993084;28;19929;-68
2022/10/09 14:00:38;;;;;;;;;;;29.80;96.00;;;;;;4992865;28;19925;-69
2022/10/09 14:03:06;;;;;;;;;;;30.00;95.50;;;;;;4992294;28;19926;-68
2022/10/09 14:05:33;;;;;;;;;;;29.00;95.90;;;;;;4993320;28;19926;-69
2022/10/09 14:07:59;;;;;;;;;;;28.70;96.10;;;;;;4992861;28;19984;-68
2022/10/09 14:10:26;;;;;;;;;;;28.80;96.00;;;;;;4995470;28;19929;-67
2022/10/09 14:12:53;;;;;;;;;;;28.80;96.00;;;;;;5011923;28;19925;-68
2022/10/09 14:15:20;;;;;;;;;;;28.80;96.40;;;;;;5012298;28;19941;-68
2022/10/09 14:17:46;;;;;;;;;;;28.70;96.70;;;;;;5012046;28;19937;-68
2022/10/09 14:20:15;;;;;;;;;;;29.00;96.60;;;;;;5012024;28;20400;-69
2022/10/09 14:22:41;;;;;;;;;;;29.30;96.50;;;;;;5011719;28;19925;-68
2022/10/09 14:25:09;;;;;;;;;;;28.90;96.60;;;;;;5011867;28;20351;-68
2022/10/09 14:27:36;;;;;;;;;;;28.80;96.70;;;;;;5012045;28;20340;-69
2022/10/09 14:30:02;;;;;;;;;;;29.10;96.30;;;;;;5011524;28;19932;-69
2022/10/09 14:32:29;;;;;;;;;;;29.20;96.50;;;;;;5011684;28;19975;-69
2022/10/09 14:34:56;;;;;;;;;;;29.30;96.40;;;;;;5011911;28;19930;-69
2022/10/09 14:37:24;;;;;;;;;;;29.20;96.70;;;;;;5011751;28;20355;-67
2022/10/09 14:39:52;;;;;;;;;;;29.50;96.60;;;;;;5011531;28;19976;-66
2022/10/09 14:42:19;;;;;;;;;;;28.60;96.70;;;;;;5011722;28;19932;-69
2022/10/09 14:44:45;;;;;;;;;;;28.40;96.70;;;;;;5011506;28;19933;-69
2022/10/09 14:47:12;;;;;;;;;;;27.80;97.10;;;;;;5012002;28;19926;-70
2022/10/09 14:49:39;;;;;;;;;;;27.50;97.60;;;;;;5011356;28;20427;-68
2022/10/09 14:52:06;;;;;;;;;;;28.00;97.30;;;;;;5011498;28;19926;-68
2022/10/09 14:54:34;;;;;;;;;;;28.00;97.30;;;;;;5011429;28;19925;-69
2022/10/09 14:57:00;;;;;;;;;;;28.20;97.20;;;;;;5011401;28;19976;-69
2022/10/09 14:59:27;;;;;;;;;;;28.20;97.60;;;;;;5010840;28;19929;-69
2022/10/09 15:01:54;;;;;;;;;;;28.20;97.60;;;;;;5010330;28;19979;-68
2022/10/09 15:04:21;;;;;;;;;;;28.20;97.40;;;;;;5010986;28;19925;-68
2022/10/09 15:06:47;;;;;;;;;;;27.80;97.90;;;;;;5011270;28;19929;-69
2022/10/09 15:09:14;;;;;;;;;;;27.50;97.60;;;;;;5010671;28;19925;-68
2022/10/09 15:11:42;;;;;;;;;;;26.90;98.00;;;;;;4997964;28;19949;-68
2022/10/09 15:14:09;;;;;;;;;;;26.40;98.30;;;;;;4991300;28;19934;-67
2022/10/09 15:16:36;;;;;;;;;;;26.20;98.50;;;;;;4991679;28;19949;-68
2022/10/09 15:19:04;;;;;;;;;;;26.30;98.50;;;;;;4990964;28;19926;-67
2022/10/09 15:21:32;;;;;;;;;;;26.20;98.30;;;;;;4991283;28;19926;-69
2022/10/09 15:24:00;;;;;;;;;;;26.20;98.80;;;;;;4990625;28;19939;-68
2022/10/09 15:26:27;;;;;;;;;;;26.30;99.00;;;;;;4991194;28;20465;-67
2022/10/09 15:28:56;;;;;;;;;;;27.10;98.50;;;;;;4991012;28;19930;-67
2022/10/09 15:31:23;;;;;;;;;;;27.20;98.30;;;;;;4991234;28;19969;-67
2022/10/09 15:33:51;;;;;;;;;;;27.60;98.30;;;;;;4990860;28;19929;-69
2022/10/09 15:36:18;;;;;;;;;;;27.80;98.00;;;;;;4991002;28;19930;-68
2022/10/09 15:38:44;;;;;;;;;;;27.00;98.10;;;;;;4990894;28;19926;-68
2022/10/09 15:41:19;;;;;;;;;;;26.60;98.50;;;;;;4990743;28;19980;-69
2022/10/09 15:43:46;;;;;;;;;;;26.70;98.20;;;;;;4990560;28;19948;-68
2022/10/09 15:46:14;;;;;;;;;;;26.40;98.30;;;;;;4990915;28;19925;-68
2022/10/09 15:48:41;;;;;;;;;;;26.40;98.40;;;;;;4990899;28;20324;-68
2022/10/09 15:51:12;;;;;;;;;;;26.00;98.50;;;;;;4990526;28;20341;-69
2022/10/09 15:53:39;;;;;;;;;;;25.70;98.80;;;;;;4990813;28;19933;-68
2022/10/09 15:56:06;;;;;;;;;;;25.80;98.80;;;;;;4990632;28;19930;-67
2022/10/09 15:58:33;;;;;;;;;;;25.60;98.50;;;;;;4990727;28;19926;-68
2022/10/09 16:01:03;;;;;;;;;;;24.80;99.10;;;;;;4989879;28;19953;-68
2022/10/09 16:03:32;;;;;;;;;;;24.50;99.20;;;;;;4990236;28;19929;-68
2022/10/09 16:06:00;;;;;;;;;;;23.70;99.80;;;;;;4990693;28;20434;-68
2022/10/09 16:08:27;;;;;;;;;;;22.50;99.90;;;;;;4990617;28;20315;-67
2022/10/09 16:10:54;;;;;;;;;;;21.30;99.90;;;;;;4996609;28;19929;-65
2022/10/09 16:13:21;;;;;;;;;;;20.50;99.90;;;;;;5009743;28;19926;-68
2022/10/09 16:15:48;;;;;;;;;;;19.90;99.90;;;;;;5010483;28;20311;-68
2022/10/09 16:18:16;;;;;;;;;;;19.50;99.90;;;;;;5010635;28;19925;-68
2022/10/09 16:20:44;;;;;;;;;;;19.20;99.90;;;;;;5010195;28;19926;-69
2022/10/09 16:23:11;;;;;;;;;;;18.90;99.90;;;;;;5010032;28;19925;-66
2022/10/09 16:25:38;;;;;;;;;;;18.60;99.90;;;;;;5010321;28;19941;-67
2022/10/09 16:28:06;;;;;;;;;;;18.20;99.90;;;;;;5009890;28;19926;-68
2022/10/09 16:30:37;;;;;;;;;;;17.90;99.90;;;;;;5009812;28;19933;-67
2022/10/09 16:33:04;;;;;;;;;;;17.60;99.90;;;;;;5009982;28;19929;-67
2022/10/09 16:35:30;;;;;;;;;;;17.40;99.90;;;;;;5010214;28;20332;-68
2022/10/09 16:37:59;;;;;;;;;;;17.10;99.90;;;;;;5010140;28;19933;-68
2022/10/09 16:40:25;;;;;;;;;;;16.90;99.90;;;;;;5009597;28;19926;-67
2022/10/09 16:42:52;;;;;;;;;;;16.70;99.90;;;;;;5042446;28;19930;-67
2022/10/09 16:45:19;;;;;;;;;;;16.60;99.90;;;;;;5009825;28;19941;-68
2022/10/09 16:47:47;;;;;;;;;;;16.30;99.90;;;;;;5009696;28;19925;-68
2022/10/09 16:50:14;;;;;;;;;;;16.20;99.90;;;;;;5009748;28;19925;-65
2022/10/09 16:52:40;;;;;;;;;;;16.00;99.90;;;;;;5009466;28;19929;-68
2022/10/09 16:55:09;;;;;;;;;;;15.90;99.90;;;;;;5009655;28;19925;-68
2022/10/09 16:57:36;;;;;;;;;;;15.80;99.90;;;;;;5009743;28;20396;-67
2022/10/09 17:00:03;;;;;;;;;;;15.60;99.90;;;;;;5009697;28;19925;-67
2022/10/09 17:02:30;;;;;;;;;;;15.50;99.90;;;;;;5009227;28;19925;-65
2022/10/09 17:04:57;;;;;;;;;;;15.30;99.90;;;;;;5009518;28;19926;-67
2022/10/09 17:07:24;;;;;;;;;;;15.20;99.90;;;;;;5009601;28;20380;-68
2022/10/09 17:09:51;;;;;;;;;;;15.10;99.90;;;;;;5009390;28;19925;-67
2022/10/09 17:12:19;;;;;;;;;;;14.90;99.90;;;;;;5009386;28;19936;-67
2022/10/09 17:14:46;;;;;;;;;;;14.80;99.90;;;;;;5009419;28;19932;-68
2022/10/09 17:17:13;;;;;;;;;;;14.70;99.90;;;;;;5009706;28;19980;-67
2022/10/09 17:19:40;;;;;;;;;;;14.70;99.90;;;;;;5009619;28;19975;-67
2022/10/09 17:22:06;;;;;;;;;;;14.50;99.90;;;;;;5010062;28;19999;-67
2022/10/09 17:24:33;;;;;;;;;;;14.40;99.90;;;;;;5012783;28;20326;-68
2022/10/09 17:27:00;;;;;;;;;;;14.40;99.90;;;;;;5012840;28;19933;-68